sensor_id;sensor_type;location;lat;lon;timestamp;P1;durP1;ratioP1;P2;durP2;ratioP2
2187;SDS011;1100;52.014;8.540;2023-05-10T00:00:20;3.42;;;1.45;;
2187;SDS011;1100;52.014;8.540;2023-05-10T00:02:47;2.90;;;1.20;;
2187;SDS011;1100;52.014;8.540;2023-05-10T00:05:13;3.28;;;1.20;;
2187;SDS011;1100;52.014;8.540;2023-05-10T00:07:38;3.93;;;1.10;;
2187;SDS011;1100;52.014;8.540;2023-05-10T00:10:04;3.77;;;1.40;;
2187;SDS011;1100;52.014;8.540;2023-05-10T00:12:29;2.92;;;1.27;;
2187;SDS011;1100;52.014;8.540;2023-05-10T00:14:55;3.23;;;1.13;;
2187;SDS011;1100;52.014;8.540;2023-05-10T00:17:20;2.63;;;1.00;;
2187;SDS011;1100;52.014;8.540;2023-05-10T00:19:45;3.67;;;1.43;;
2187;SDS011;1100;52.014;8.540;2023-05-10T00:22:10;3.80;;;1.57;;
2187;SDS011;1100;52.014;8.540;2023-05-10T00:24:36;2.78;;;1.10;;
2187;SDS011;1100;52.014;8.540;2023-05-10T00:27:01;4.10;;;1.30;;
2187;SDS011;1100;52.014;8.540;2023-05-10T00:29:28;4.40;;;1.70;;
2187;SDS011;1100;52.014;8.540;2023-05-10T00:31:54;5.43;;;1.60;;
2187;SDS011;1100;52.014;8.540;2023-05-10T00:34:19;3.90;;;1.27;;
2187;SDS011;1100;52.014;8.540;2023-05-10T00:36:45;3.00;;;1.40;;
2187;SDS011;1100;52.014;8.540;2023-05-10T00:39:10;5.80;;;1.50;;
2187;SDS011;1100;52.014;8.540;2023-05-10T00:41:35;4.13;;;1.87;;
2187;SDS011;1100;52.014;8.540;2023-05-10T00:44:01;4.00;;;1.30;;
2187;SDS011;1100;52.014;8.540;2023-05-10T00:46:27;4.65;;;1.67;;
2187;SDS011;1100;52.014;8.540;2023-05-10T00:48:53;5.32;;;1.85;;
2187;SDS011;1100;52.014;8.540;2023-05-10T00:51:18;3.67;;;1.70;;
2187;SDS011;1100;52.014;8.540;2023-05-10T00:53:47;3.63;;;1.50;;
2187;SDS011;1100;52.014;8.540;2023-05-10T00:56:14;3.70;;;1.23;;
2187;SDS011;1100;52.014;8.540;2023-05-10T00:58:40;3.67;;;1.23;;
2187;SDS011;1100;52.014;8.540;2023-05-10T01:01:06;3.80;;;1.17;;
2187;SDS011;1100;52.014;8.540;2023-05-10T01:03:33;3.30;;;1.33;;
2187;SDS011;1100;52.014;8.540;2023-05-10T01:05:58;4.13;;;1.40;;
2187;SDS011;1100;52.014;8.540;2023-05-10T01:08:24;4.20;;;1.33;;
2187;SDS011;1100;52.014;8.540;2023-05-10T01:10:50;4.33;;;1.57;;
2187;SDS011;1100;52.014;8.540;2023-05-10T01:13:18;3.70;;;1.35;;
2187;SDS011;1100;52.014;8.540;2023-05-10T01:16:06;3.85;;;1.45;;
2187;SDS011;1100;52.014;8.540;2023-05-10T01:18:35;4.32;;;1.48;;
2187;SDS011;1100;52.014;8.540;2023-05-10T01:21:15;2.92;;;0.98;;
2187;SDS011;1100;52.014;8.540;2023-05-10T01:29:33;4.82;;;1.77;;
2187;SDS011;1100;52.014;8.540;2023-05-10T01:34:44;3.78;;;1.40;;
2187;SDS011;1100;52.014;8.540;2023-05-10T01:37:26;3.53;;;1.30;;
2187;SDS011;1100;52.014;8.540;2023-05-10T01:40:00;3.20;;;1.23;;
2187;SDS011;1100;52.014;8.540;2023-05-10T01:42:35;5.25;;;2.05;;
2187;SDS011;1100;52.014;8.540;2023-05-10T01:45:11;3.60;;;1.45;;
2187;SDS011;1100;52.014;8.540;2023-05-10T01:47:44;4.35;;;1.50;;
2187;SDS011;1100;52.014;8.540;2023-05-10T01:50:17;3.53;;;1.50;;
2187;SDS011;1100;52.014;8.540;2023-05-10T01:52:47;3.53;;;1.20;;
2187;SDS011;1100;52.014;8.540;2023-05-10T01:55:18;3.83;;;1.75;;
2187;SDS011;1100;52.014;8.540;2023-05-10T01:57:46;5.60;;;1.45;;
2187;SDS011;1100;52.014;8.540;2023-05-10T02:00:15;3.78;;;1.30;;
2187;SDS011;1100;52.014;8.540;2023-05-10T02:02:45;4.27;;;1.23;;
2187;SDS011;1100;52.014;8.540;2023-05-10T02:05:13;3.60;;;1.33;;
2187;SDS011;1100;52.014;8.540;2023-05-10T02:07:40;2.88;;;1.17;;
2187;SDS011;1100;52.014;8.540;2023-05-10T02:10:07;3.25;;;1.30;;
2187;SDS011;1100;52.014;8.540;2023-05-10T02:12:37;4.78;;;1.52;;
2187;SDS011;1100;52.014;8.540;2023-05-10T02:15:07;2.50;;;0.90;;
2187;SDS011;1100;52.014;8.540;2023-05-10T02:17:34;3.85;;;1.17;;
2187;SDS011;1100;52.014;8.540;2023-05-10T02:20:01;2.33;;;0.98;;
2187;SDS011;1100;52.014;8.540;2023-05-10T02:22:30;2.30;;;0.80;;
2187;SDS011;1100;52.014;8.540;2023-05-10T02:24:57;2.65;;;0.88;;
2187;SDS011;1100;52.014;8.540;2023-05-10T02:27:24;2.87;;;1.23;;
2187;SDS011;1100;52.014;8.540;2023-05-10T02:29:52;3.60;;;1.27;;
2187;SDS011;1100;52.014;8.540;2023-05-10T02:32:19;4.00;;;1.38;;
2187;SDS011;1100;52.014;8.540;2023-05-10T02:34:46;2.95;;;1.15;;
2187;SDS011;1100;52.014;8.540;2023-05-10T02:37:16;2.63;;;0.80;;
2187;SDS011;1100;52.014;8.540;2023-05-10T02:39:45;2.43;;;0.87;;
2187;SDS011;1100;52.014;8.540;2023-05-10T02:42:13;2.53;;;0.82;;
2187;SDS011;1100;52.014;8.540;2023-05-10T02:44:42;5.03;;;1.17;;
2187;SDS011;1100;52.014;8.540;2023-05-10T02:47:10;3.58;;;1.38;;
2187;SDS011;1100;52.014;8.540;2023-05-10T02:49:35;2.30;;;0.70;;
2187;SDS011;1100;52.014;8.540;2023-05-10T02:52:01;2.50;;;0.90;;
2187;SDS011;1100;52.014;8.540;2023-05-10T02:54:32;5.13;;;1.58;;
2187;SDS011;1100;52.014;8.540;2023-05-10T02:57:03;3.13;;;1.27;;
2187;SDS011;1100;52.014;8.540;2023-05-10T02:59:30;3.33;;;1.35;;
2187;SDS011;1100;52.014;8.540;2023-05-10T03:01:57;2.60;;;0.70;;
2187;SDS011;1100;52.014;8.540;2023-05-10T03:04:25;3.70;;;1.35;;
2187;SDS011;1100;52.014;8.540;2023-05-10T03:06:50;3.60;;;1.00;;
2187;SDS011;1100;52.014;8.540;2023-05-10T03:09:16;4.07;;;1.33;;
2187;SDS011;1100;52.014;8.540;2023-05-10T03:11:59;4.03;;;1.63;;
2187;SDS011;1100;52.014;8.540;2023-05-10T03:17:15;4.25;;;1.73;;
2187;SDS011;1100;52.014;8.540;2023-05-10T03:20:04;3.83;;;1.87;;
2187;SDS011;1100;52.014;8.540;2023-05-10T03:22:36;4.20;;;1.60;;
2187;SDS011;1100;52.014;8.540;2023-05-10T03:25:06;3.90;;;1.85;;
2187;SDS011;1100;52.014;8.540;2023-05-10T03:27:35;4.70;;;1.63;;
2187;SDS011;1100;52.014;8.540;2023-05-10T03:30:03;5.03;;;1.70;;
2187;SDS011;1100;52.014;8.540;2023-05-10T03:32:30;5.13;;;1.63;;
2187;SDS011;1100;52.014;8.540;2023-05-10T03:34:57;4.72;;;1.38;;
2187;SDS011;1100;52.014;8.540;2023-05-10T03:37:22;3.60;;;1.93;;
2187;SDS011;1100;52.014;8.540;2023-05-10T03:39:51;4.60;;;1.73;;
2187;SDS011;1100;52.014;8.540;2023-05-10T03:42:16;5.43;;;2.20;;
2187;SDS011;1100;52.014;8.540;2023-05-10T03:44:42;4.07;;;1.60;;
2187;SDS011;1100;52.014;8.540;2023-05-10T03:47:08;3.93;;;1.53;;
2187;SDS011;1100;52.014;8.540;2023-05-10T03:49:33;3.20;;;1.15;;
2187;SDS011;1100;52.014;8.540;2023-05-10T03:51:58;3.13;;;0.87;;
2187;SDS011;1100;52.014;8.540;2023-05-10T03:54:24;2.97;;;1.27;;
2187;SDS011;1100;52.014;8.540;2023-05-10T03:56:49;2.67;;;1.03;;
2187;SDS011;1100;52.014;8.540;2023-05-10T03:59:14;2.73;;;0.60;;
2187;SDS011;1100;52.014;8.540;2023-05-10T04:01:40;2.23;;;0.80;;
2187;SDS011;1100;52.014;8.540;2023-05-10T04:04:05;2.87;;;0.90;;
2187;SDS011;1100;52.014;8.540;2023-05-10T04:06:30;2.22;;;0.40;;
2187;SDS011;1100;52.014;8.540;2023-05-10T04:08:56;1.50;;;0.50;;
2187;SDS011;1100;52.014;8.540;2023-05-10T04:11:24;1.60;;;0.50;;
2187;SDS011;1100;52.014;8.540;2023-05-10T04:13:50;1.63;;;0.50;;
2187;SDS011;1100;52.014;8.540;2023-05-10T04:16:15;1.90;;;0.57;;
2187;SDS011;1100;52.014;8.540;2023-05-10T04:18:40;1.33;;;0.30;;
2187;SDS011;1100;52.014;8.540;2023-05-10T04:21:11;1.58;;;0.50;;
2187;SDS011;1100;52.014;8.540;2023-05-10T04:23:39;0.90;;;0.27;;
2187;SDS011;1100;52.014;8.540;2023-05-10T04:26:05;1.35;;;0.40;;
2187;SDS011;1100;52.014;8.540;2023-05-10T04:28:30;1.10;;;0.30;;
2187;SDS011;1100;52.014;8.540;2023-05-10T04:31:03;1.08;;;0.20;;
2187;SDS011;1100;52.014;8.540;2023-05-10T04:33:32;0.80;;;0.20;;
2187;SDS011;1100;52.014;8.540;2023-05-10T04:35:58;1.10;;;0.30;;
2187;SDS011;1100;52.014;8.540;2023-05-10T04:38:23;0.80;;;0.20;;
2187;SDS011;1100;52.014;8.540;2023-05-10T04:40:49;1.10;;;0.30;;
2187;SDS011;1100;52.014;8.540;2023-05-10T04:43:15;1.60;;;0.47;;
2187;SDS011;1100;52.014;8.540;2023-05-10T04:45:40;1.47;;;0.40;;
2187;SDS011;1100;52.014;8.540;2023-05-10T04:48:06;1.40;;;0.40;;
2187;SDS011;1100;52.014;8.540;2023-05-10T04:50:32;1.53;;;0.40;;
2187;SDS011;1100;52.014;8.540;2023-05-10T04:52:58;1.52;;;0.38;;
2187;SDS011;1100;52.014;8.540;2023-05-10T04:55:24;1.40;;;0.40;;
2187;SDS011;1100;52.014;8.540;2023-05-10T04:57:49;1.70;;;0.40;;
2187;SDS011;1100;52.014;8.540;2023-05-10T05:00:15;1.03;;;0.30;;
2187;SDS011;1100;52.014;8.540;2023-05-10T05:02:45;2.05;;;0.88;;
2187;SDS011;1100;52.014;8.540;2023-05-10T05:05:11;1.63;;;0.60;;
2187;SDS011;1100;52.014;8.540;2023-05-10T05:07:37;1.00;;;0.25;;
2187;SDS011;1100;52.014;8.540;2023-05-10T05:10:03;1.17;;;0.30;;
2187;SDS011;1100;52.014;8.540;2023-05-10T05:12:29;1.50;;;0.33;;
2187;SDS011;1100;52.014;8.540;2023-05-10T05:14:55;2.67;;;0.60;;
2187;SDS011;1100;52.014;8.540;2023-05-10T05:17:21;1.40;;;0.50;;
2187;SDS011;1100;52.014;8.540;2023-05-10T05:19:46;1.57;;;0.40;;
2187;SDS011;1100;52.014;8.540;2023-05-10T05:22:11;1.23;;;0.40;;
2187;SDS011;1100;52.014;8.540;2023-05-10T05:24:37;1.63;;;0.40;;
2187;SDS011;1100;52.014;8.540;2023-05-10T05:27:03;1.97;;;0.83;;
2187;SDS011;1100;52.014;8.540;2023-05-10T05:29:28;1.75;;;0.47;;
2187;SDS011;1100;52.014;8.540;2023-05-10T05:31:53;2.30;;;0.63;;
2187;SDS011;1100;52.014;8.540;2023-05-10T05:34:19;2.03;;;0.67;;
2187;SDS011;1100;52.014;8.540;2023-05-10T05:36:45;2.25;;;0.73;;
2187;SDS011;1100;52.014;8.540;2023-05-10T05:39:10;1.50;;;0.50;;
2187;SDS011;1100;52.014;8.540;2023-05-10T05:41:36;1.17;;;0.30;;
2187;SDS011;1100;52.014;8.540;2023-05-10T05:44:01;1.87;;;0.50;;
2187;SDS011;1100;52.014;8.540;2023-05-10T05:46:26;1.70;;;0.50;;
2187;SDS011;1100;52.014;8.540;2023-05-10T05:48:52;2.27;;;0.57;;
2187;SDS011;1100;52.014;8.540;2023-05-10T05:51:17;2.03;;;0.80;;
2187;SDS011;1100;52.014;8.540;2023-05-10T05:53:42;1.67;;;0.50;;
2187;SDS011;1100;52.014;8.540;2023-05-10T05:56:08;2.40;;;0.70;;
2187;SDS011;1100;52.014;8.540;2023-05-10T05:58:34;1.73;;;0.68;;
2187;SDS011;1100;52.014;8.540;2023-05-10T06:01:00;1.70;;;0.50;;
2187;SDS011;1100;52.014;8.540;2023-05-10T06:03:26;2.00;;;0.60;;
2187;SDS011;1100;52.014;8.540;2023-05-10T06:05:51;1.87;;;0.70;;
2187;SDS011;1100;52.014;8.540;2023-05-10T06:08:17;2.20;;;0.63;;
2187;SDS011;1100;52.014;8.540;2023-05-10T06:10:42;1.13;;;0.37;;
2187;SDS011;1100;52.014;8.540;2023-05-10T06:13:07;1.43;;;0.33;;
2187;SDS011;1100;52.014;8.540;2023-05-10T06:15:33;2.53;;;1.00;;
2187;SDS011;1100;52.014;8.540;2023-05-10T06:17:58;1.50;;;0.40;;
2187;SDS011;1100;52.014;8.540;2023-05-10T06:20:23;1.10;;;0.30;;
2187;SDS011;1100;52.014;8.540;2023-05-10T06:22:49;1.70;;;0.50;;
2187;SDS011;1100;52.014;8.540;2023-05-10T06:25:14;2.28;;;0.90;;
2187;SDS011;1100;52.014;8.540;2023-05-10T06:27:39;1.10;;;0.30;;
2187;SDS011;1100;52.014;8.540;2023-05-10T06:30:05;2.63;;;0.70;;
2187;SDS011;1100;52.014;8.540;2023-05-10T06:32:31;1.58;;;0.40;;
2187;SDS011;1100;52.014;8.540;2023-05-10T06:34:57;2.27;;;0.60;;
2187;SDS011;1100;52.014;8.540;2023-05-10T06:37:22;2.58;;;0.70;;
2187;SDS011;1100;52.014;8.540;2023-05-10T06:39:47;2.63;;;0.40;;
2187;SDS011;1100;52.014;8.540;2023-05-10T06:42:13;1.20;;;0.30;;
2187;SDS011;1100;52.014;8.540;2023-05-10T06:44:38;1.70;;;0.50;;
2187;SDS011;1100;52.014;8.540;2023-05-10T06:47:04;2.70;;;0.70;;
2187;SDS011;1100;52.014;8.540;2023-05-10T06:49:29;2.03;;;0.47;;
2187;SDS011;1100;52.014;8.540;2023-05-10T06:51:57;1.43;;;0.50;;
2187;SDS011;1100;52.014;8.540;2023-05-10T06:54:23;2.10;;;0.70;;
2187;SDS011;1100;52.014;8.540;2023-05-10T06:56:48;2.47;;;0.80;;
2187;SDS011;1100;52.014;8.540;2023-05-10T06:59:14;1.60;;;0.47;;
2187;SDS011;1100;52.014;8.540;2023-05-10T07:01:41;1.50;;;0.40;;
2187;SDS011;1100;52.014;8.540;2023-05-10T07:04:06;1.07;;;0.27;;
2187;SDS011;1100;52.014;8.540;2023-05-10T07:06:32;2.17;;;0.73;;
2187;SDS011;1100;52.014;8.540;2023-05-10T07:08:58;1.83;;;0.57;;
2187;SDS011;1100;52.014;8.540;2023-05-10T07:11:24;2.10;;;0.40;;
2187;SDS011;1100;52.014;8.540;2023-05-10T07:13:49;1.97;;;0.63;;
2187;SDS011;1100;52.014;8.540;2023-05-10T07:16:15;2.73;;;0.87;;
2187;SDS011;1100;52.014;8.540;2023-05-10T07:18:40;2.77;;;0.77;;
2187;SDS011;1100;52.014;8.540;2023-05-10T07:21:06;4.17;;;0.87;;
2187;SDS011;1100;52.014;8.540;2023-05-10T07:23:31;4.13;;;0.90;;
2187;SDS011;1100;52.014;8.540;2023-05-10T07:25:57;1.85;;;0.70;;
2187;SDS011;1100;52.014;8.540;2023-05-10T07:28:22;2.60;;;0.70;;
2187;SDS011;1100;52.014;8.540;2023-05-10T07:30:49;2.70;;;1.15;;
2187;SDS011;1100;52.014;8.540;2023-05-10T07:33:14;3.10;;;1.10;;
2187;SDS011;1100;52.014;8.540;2023-05-10T07:35:40;3.05;;;0.80;;
2187;SDS011;1100;52.014;8.540;2023-05-10T07:38:06;4.30;;;1.73;;
2187;SDS011;1100;52.014;8.540;2023-05-10T07:40:31;5.87;;;1.03;;
2187;SDS011;1100;52.014;8.540;2023-05-10T07:42:57;2.83;;;1.43;;
2187;SDS011;1100;52.014;8.540;2023-05-10T07:45:22;3.92;;;1.38;;
2187;SDS011;1100;52.014;8.540;2023-05-10T07:47:48;3.30;;;1.40;;
2187;SDS011;1100;52.014;8.540;2023-05-10T07:50:14;2.57;;;0.93;;
2187;SDS011;1100;52.014;8.540;2023-05-10T07:52:39;4.00;;;1.48;;
2187;SDS011;1100;52.014;8.540;2023-05-10T07:55:05;3.60;;;1.70;;
2187;SDS011;1100;52.014;8.540;2023-05-10T07:57:32;2.85;;;1.42;;
2187;SDS011;1100;52.014;8.540;2023-05-10T07:59:58;6.00;;;1.52;;
2187;SDS011;1100;52.014;8.540;2023-05-10T08:02:23;4.47;;;1.20;;
2187;SDS011;1100;52.014;8.540;2023-05-10T08:04:48;3.60;;;1.37;;
2187;SDS011;1100;52.014;8.540;2023-05-10T08:07:14;3.80;;;1.77;;
2187;SDS011;1100;52.014;8.540;2023-05-10T08:09:39;5.80;;;1.50;;
2187;SDS011;1100;52.014;8.540;2023-05-10T08:12:04;3.63;;;1.43;;
2187;SDS011;1100;52.014;8.540;2023-05-10T08:14:30;6.95;;;1.92;;
2187;SDS011;1100;52.014;8.540;2023-05-10T08:16:55;4.83;;;2.60;;
2187;SDS011;1100;52.014;8.540;2023-05-10T08:19:21;5.57;;;1.90;;
2187;SDS011;1100;52.014;8.540;2023-05-10T08:21:47;3.28;;;1.40;;
2187;SDS011;1100;52.014;8.540;2023-05-10T08:24:13;4.53;;;1.83;;
2187;SDS011;1100;52.014;8.540;2023-05-10T08:26:38;4.30;;;2.00;;
2187;SDS011;1100;52.014;8.540;2023-05-10T08:29:03;7.83;;;3.00;;
2187;SDS011;1100;52.014;8.540;2023-05-10T08:31:29;9.05;;;2.30;;
2187;SDS011;1100;52.014;8.540;2023-05-10T08:33:55;7.07;;;2.30;;
2187;SDS011;1100;52.014;8.540;2023-05-10T08:36:20;4.87;;;2.33;;
2187;SDS011;1100;52.014;8.540;2023-05-10T08:38:50;5.90;;;2.50;;
2187;SDS011;1100;52.014;8.540;2023-05-10T08:41:17;6.03;;;2.70;;
2187;SDS011;1100;52.014;8.540;2023-05-10T08:43:46;4.47;;;2.50;;
2187;SDS011;1100;52.014;8.540;2023-05-10T08:46:11;8.20;;;1.83;;
2187;SDS011;1100;52.014;8.540;2023-05-10T08:48:40;5.45;;;1.83;;
2187;SDS011;1100;52.014;8.540;2023-05-10T08:51:07;6.97;;;2.50;;
2187;SDS011;1100;52.014;8.540;2023-05-10T08:53:34;5.83;;;1.97;;
2187;SDS011;1100;52.014;8.540;2023-05-10T08:56:02;4.57;;;1.40;;
2187;SDS011;1100;52.014;8.540;2023-05-10T08:58:28;7.45;;;3.28;;
2187;SDS011;1100;52.014;8.540;2023-05-10T09:00:53;6.13;;;2.50;;
2187;SDS011;1100;52.014;8.540;2023-05-10T09:03:19;6.47;;;2.15;;
2187;SDS011;1100;52.014;8.540;2023-05-10T09:05:45;9.60;;;2.43;;
2187;SDS011;1100;52.014;8.540;2023-05-10T09:08:10;5.13;;;2.00;;
2187;SDS011;1100;52.014;8.540;2023-05-10T09:10:38;6.13;;;3.10;;
2187;SDS011;1100;52.014;8.540;2023-05-10T09:13:05;5.83;;;2.90;;
2187;SDS011;1100;52.014;8.540;2023-05-10T09:15:31;6.68;;;2.55;;
2187;SDS011;1100;52.014;8.540;2023-05-10T09:17:57;4.57;;;1.93;;
2187;SDS011;1100;52.014;8.540;2023-05-10T09:20:24;6.93;;;2.80;;
2187;SDS011;1100;52.014;8.540;2023-05-10T09:22:49;8.40;;;2.63;;
2187;SDS011;1100;52.014;8.540;2023-05-10T09:25:15;6.83;;;2.70;;
2187;SDS011;1100;52.014;8.540;2023-05-10T09:27:43;6.07;;;1.98;;
2187;SDS011;1100;52.014;8.540;2023-05-10T09:30:10;6.22;;;2.97;;
2187;SDS011;1100;52.014;8.540;2023-05-10T09:32:41;7.47;;;3.22;;
2187;SDS011;1100;52.014;8.540;2023-05-10T09:37:36;7.97;;;2.70;;
2187;SDS011;1100;52.014;8.540;2023-05-10T09:40:06;5.63;;;2.73;;
2187;SDS011;1100;52.014;8.540;2023-05-10T09:42:33;5.22;;;2.53;;
2187;SDS011;1100;52.014;8.540;2023-05-10T09:45:00;7.70;;;3.40;;
2187;SDS011;1100;52.014;8.540;2023-05-10T09:47:29;7.18;;;2.90;;
2187;SDS011;1100;52.014;8.540;2023-05-10T09:49:57;6.40;;;2.58;;
2187;SDS011;1100;52.014;8.540;2023-05-10T09:52:27;7.00;;;2.43;;
2187;SDS011;1100;52.014;8.540;2023-05-10T09:54:53;9.07;;;3.85;;
2187;SDS011;1100;52.014;8.540;2023-05-10T09:57:22;9.73;;;3.03;;
2187;SDS011;1100;52.014;8.540;2023-05-10T09:59:49;6.13;;;2.77;;
2187;SDS011;1100;52.014;8.540;2023-05-10T10:02:15;8.85;;;3.47;;
2187;SDS011;1100;52.014;8.540;2023-05-10T10:04:41;7.10;;;2.97;;
2187;SDS011;1100;52.014;8.540;2023-05-10T10:07:07;6.78;;;2.78;;
2187;SDS011;1100;52.014;8.540;2023-05-10T10:09:33;5.37;;;2.20;;
2187;SDS011;1100;52.014;8.540;2023-05-10T10:12:00;5.45;;;2.55;;
2187;SDS011;1100;52.014;8.540;2023-05-10T10:14:27;6.10;;;2.38;;
2187;SDS011;1100;52.014;8.540;2023-05-10T10:16:53;5.27;;;1.93;;
2187;SDS011;1100;52.014;8.540;2023-05-10T10:19:19;7.00;;;2.78;;
2187;SDS011;1100;52.014;8.540;2023-05-10T10:21:45;6.25;;;2.03;;
2187;SDS011;1100;52.014;8.540;2023-05-10T10:24:11;7.30;;;2.50;;
2187;SDS011;1100;52.014;8.540;2023-05-10T10:26:37;6.30;;;2.40;;
2187;SDS011;1100;52.014;8.540;2023-05-10T10:34:28;5.22;;;1.67;;
2187;SDS011;1100;52.014;8.540;2023-05-10T10:36:54;5.50;;;1.85;;
2187;SDS011;1100;52.014;8.540;2023-05-10T10:39:21;5.50;;;1.83;;
2187;SDS011;1100;52.014;8.540;2023-05-10T10:41:54;5.65;;;1.92;;
2187;SDS011;1100;52.014;8.540;2023-05-10T10:47:01;5.95;;;2.25;;
2187;SDS011;1100;52.014;8.540;2023-05-10T10:52:34;5.72;;;1.55;;
2187;SDS011;1100;52.014;8.540;2023-05-10T10:55:19;3.70;;;1.27;;
2187;SDS011;1100;52.014;8.540;2023-05-10T11:00:20;2.88;;;1.10;;
2187;SDS011;1100;52.014;8.540;2023-05-10T11:02:47;4.25;;;1.20;;
2187;SDS011;1100;52.014;8.540;2023-05-10T11:05:23;4.22;;;1.42;;
2187;SDS011;1100;52.014;8.540;2023-05-10T11:07:56;5.18;;;1.65;;
2187;SDS011;1100;52.014;8.540;2023-05-10T11:10:23;3.70;;;1.40;;
2187;SDS011;1100;52.014;8.540;2023-05-10T11:15:30;5.43;;;1.25;;
2187;SDS011;1100;52.014;8.540;2023-05-10T11:17:59;4.20;;;1.27;;
2187;SDS011;1100;52.014;8.540;2023-05-10T11:20:41;3.78;;;1.10;;
2187;SDS011;1100;52.014;8.540;2023-05-10T11:23:13;3.37;;;1.00;;
2187;SDS011;1100;52.014;8.540;2023-05-10T11:25:43;3.35;;;1.08;;
2187;SDS011;1100;52.014;8.540;2023-05-10T11:28:09;5.80;;;1.17;;
2187;SDS011;1100;52.014;8.540;2023-05-10T11:30:37;3.47;;;1.02;;
2187;SDS011;1100;52.014;8.540;2023-05-10T11:33:03;5.10;;;1.60;;
2187;SDS011;1100;52.014;8.540;2023-05-10T11:35:29;4.13;;;1.10;;
2187;SDS011;1100;52.014;8.540;2023-05-10T11:37:54;4.73;;;1.40;;
2187;SDS011;1100;52.014;8.540;2023-05-10T11:40:22;3.87;;;1.50;;
2187;SDS011;1100;52.014;8.540;2023-05-10T11:42:49;5.20;;;1.70;;
2187;SDS011;1100;52.014;8.540;2023-05-10T11:45:15;4.88;;;1.48;;
2187;SDS011;1100;52.014;8.540;2023-05-10T11:47:41;4.77;;;1.37;;
2187;SDS011;1100;52.014;8.540;2023-05-10T11:50:08;4.47;;;1.42;;
2187;SDS011;1100;52.014;8.540;2023-05-10T11:52:37;6.55;;;1.90;;
2187;SDS011;1100;52.014;8.540;2023-05-10T11:55:03;4.68;;;1.70;;
2187;SDS011;1100;52.014;8.540;2023-05-10T11:57:28;7.93;;;1.60;;
2187;SDS011;1100;52.014;8.540;2023-05-10T11:59:56;4.05;;;1.48;;
2187;SDS011;1100;52.014;8.540;2023-05-10T12:02:22;5.90;;;1.23;;
2187;SDS011;1100;52.014;8.540;2023-05-10T12:04:48;4.07;;;1.08;;
2187;SDS011;1100;52.014;8.540;2023-05-10T12:07:14;3.63;;;1.13;;
2187;SDS011;1100;52.014;8.540;2023-05-10T12:09:43;6.25;;;1.70;;
2187;SDS011;1100;52.014;8.540;2023-05-10T12:12:09;3.38;;;1.40;;
2187;SDS011;1100;52.014;8.540;2023-05-10T12:14:36;5.60;;;2.03;;
2187;SDS011;1100;52.014;8.540;2023-05-10T12:17:01;5.45;;;2.03;;
2187;SDS011;1100;52.014;8.540;2023-05-10T12:19:27;4.30;;;1.80;;
2187;SDS011;1100;52.014;8.540;2023-05-10T12:21:52;6.07;;;1.77;;
2187;SDS011;1100;52.014;8.540;2023-05-10T12:24:17;4.30;;;1.53;;
2187;SDS011;1100;52.014;8.540;2023-05-10T12:26:44;4.63;;;2.10;;
2187;SDS011;1100;52.014;8.540;2023-05-10T12:29:17;6.30;;;1.98;;
2187;SDS011;1100;52.014;8.540;2023-05-10T12:31:53;7.68;;;3.40;;
2187;SDS011;1100;52.014;8.540;2023-05-10T12:34:23;8.85;;;2.53;;
2187;SDS011;1100;52.014;8.540;2023-05-10T12:36:55;5.33;;;1.70;;
2187;SDS011;1100;52.014;8.540;2023-05-10T12:39:21;5.93;;;2.40;;
2187;SDS011;1100;52.014;8.540;2023-05-10T12:41:46;6.47;;;2.27;;
2187;SDS011;1100;52.014;8.540;2023-05-10T12:44:12;5.60;;;2.17;;
2187;SDS011;1100;52.014;8.540;2023-05-10T12:46:37;6.07;;;2.40;;
2187;SDS011;1100;52.014;8.540;2023-05-10T12:49:02;6.70;;;2.20;;
2187;SDS011;1100;52.014;8.540;2023-05-10T12:51:28;5.77;;;2.40;;
2187;SDS011;1100;52.014;8.540;2023-05-10T12:53:53;6.10;;;2.47;;
2187;SDS011;1100;52.014;8.540;2023-05-10T12:56:19;5.43;;;1.90;;
2187;SDS011;1100;52.014;8.540;2023-05-10T12:58:45;8.60;;;2.33;;
2187;SDS011;1100;52.014;8.540;2023-05-10T13:01:16;5.32;;;1.83;;
2187;SDS011;1100;52.014;8.540;2023-05-10T13:03:41;6.53;;;2.67;;
2187;SDS011;1100;52.014;8.540;2023-05-10T13:06:08;9.48;;;2.55;;
2187;SDS011;1100;52.014;8.540;2023-05-10T13:08:33;5.87;;;2.77;;
2187;SDS011;1100;52.014;8.540;2023-05-10T13:10:59;7.83;;;3.63;;
2187;SDS011;1100;52.014;8.540;2023-05-10T13:13:25;7.05;;;2.53;;
2187;SDS011;1100;52.014;8.540;2023-05-10T13:15:51;8.18;;;2.30;;
2187;SDS011;1100;52.014;8.540;2023-05-10T13:18:16;5.17;;;2.00;;
2187;SDS011;1100;52.014;8.540;2023-05-10T13:20:41;7.00;;;2.37;;
2187;SDS011;1100;52.014;8.540;2023-05-10T13:23:09;6.18;;;2.72;;
2187;SDS011;1100;52.014;8.540;2023-05-10T13:25:34;6.77;;;2.30;;
2187;SDS011;1100;52.014;8.540;2023-05-10T13:28:00;7.35;;;2.63;;
2187;SDS011;1100;52.014;8.540;2023-05-10T13:30:25;7.17;;;2.23;;
2187;SDS011;1100;52.014;8.540;2023-05-10T13:32:51;6.30;;;2.55;;
2187;SDS011;1100;52.014;8.540;2023-05-10T13:35:16;7.13;;;2.37;;
2187;SDS011;1100;52.014;8.540;2023-05-10T13:37:44;6.17;;;2.13;;
2187;SDS011;1100;52.014;8.540;2023-05-10T13:40:09;5.40;;;2.13;;
2187;SDS011;1100;52.014;8.540;2023-05-10T13:42:35;3.63;;;1.43;;
2187;SDS011;1100;52.014;8.540;2023-05-10T13:45:00;5.20;;;1.90;;
2187;SDS011;1100;52.014;8.540;2023-05-10T13:47:26;4.65;;;1.83;;
2187;SDS011;1100;52.014;8.540;2023-05-10T13:49:55;7.85;;;2.55;;
2187;SDS011;1100;52.014;8.540;2023-05-10T13:52:20;5.03;;;1.50;;
2187;SDS011;1100;52.014;8.540;2023-05-10T13:54:46;6.25;;;1.55;;
2187;SDS011;1100;52.014;8.540;2023-05-10T13:57:11;4.80;;;1.80;;
2187;SDS011;1100;52.014;8.540;2023-05-10T13:59:38;7.75;;;2.33;;
2187;SDS011;1100;52.014;8.540;2023-05-10T14:02:04;5.20;;;2.20;;
2187;SDS011;1100;52.014;8.540;2023-05-10T14:04:29;5.53;;;2.27;;
2187;SDS011;1100;52.014;8.540;2023-05-10T14:06:55;7.53;;;2.25;;
2187;SDS011;1100;52.014;8.540;2023-05-10T14:09:20;5.63;;;1.90;;
2187;SDS011;1100;52.014;8.540;2023-05-10T14:11:46;4.83;;;1.57;;
2187;SDS011;1100;52.014;8.540;2023-05-10T14:14:11;7.20;;;2.37;;
2187;SDS011;1100;52.014;8.540;2023-05-10T14:16:38;5.35;;;1.92;;
2187;SDS011;1100;52.014;8.540;2023-05-10T14:19:06;4.72;;;1.60;;
2187;SDS011;1100;52.014;8.540;2023-05-10T14:21:31;6.17;;;2.00;;
2187;SDS011;1100;52.014;8.540;2023-05-10T14:23:57;5.03;;;1.70;;
2187;SDS011;1100;52.014;8.540;2023-05-10T14:26:22;5.33;;;2.30;;
2187;SDS011;1100;52.014;8.540;2023-05-10T14:28:47;4.63;;;1.97;;
2187;SDS011;1100;52.014;8.540;2023-05-10T14:31:13;6.38;;;2.30;;
2187;SDS011;1100;52.014;8.540;2023-05-10T14:33:39;4.80;;;1.80;;
2187;SDS011;1100;52.014;8.540;2023-05-10T14:36:07;5.88;;;1.75;;
2187;SDS011;1100;52.014;8.540;2023-05-10T14:38:33;5.10;;;2.33;;
2187;SDS011;1100;52.014;8.540;2023-05-10T14:40:59;6.87;;;2.40;;
2187;SDS011;1100;52.014;8.540;2023-05-10T14:43:24;4.27;;;1.73;;
2187;SDS011;1100;52.014;8.540;2023-05-10T14:45:49;4.57;;;1.73;;
2187;SDS011;1100;52.014;8.540;2023-05-10T14:48:15;4.90;;;2.27;;
2187;SDS011;1100;52.014;8.540;2023-05-10T14:50:42;5.85;;;2.08;;
2187;SDS011;1100;52.014;8.540;2023-05-10T14:53:08;5.37;;;2.10;;
2187;SDS011;1100;52.014;8.540;2023-05-10T14:55:33;5.93;;;2.67;;
2187;SDS011;1100;52.014;8.540;2023-05-10T14:58:00;6.63;;;3.03;;
2187;SDS011;1100;52.014;8.540;2023-05-10T15:00:25;7.97;;;2.90;;
2187;SDS011;1100;52.014;8.540;2023-05-10T15:02:50;6.43;;;2.70;;
2187;SDS011;1100;52.014;8.540;2023-05-10T15:05:16;5.90;;;2.20;;
2187;SDS011;1100;52.014;8.540;2023-05-10T15:07:41;5.17;;;2.37;;
2187;SDS011;1100;52.014;8.540;2023-05-10T15:10:08;5.97;;;2.75;;
2187;SDS011;1100;52.014;8.540;2023-05-10T15:12:34;7.10;;;2.53;;
2187;SDS011;1100;52.014;8.540;2023-05-10T15:14:59;7.17;;;2.97;;
2187;SDS011;1100;52.014;8.540;2023-05-10T15:17:25;9.03;;;2.93;;
2187;SDS011;1100;52.014;8.540;2023-05-10T15:19:50;8.40;;;2.83;;
2187;SDS011;1100;52.014;8.540;2023-05-10T15:22:16;5.70;;;2.60;;
2187;SDS011;1100;52.014;8.540;2023-05-10T15:24:41;7.47;;;3.70;;
2187;SDS011;1100;52.014;8.540;2023-05-10T15:27:06;7.53;;;2.77;;
2187;SDS011;1100;52.014;8.540;2023-05-10T15:29:31;6.28;;;2.67;;
2187;SDS011;1100;52.014;8.540;2023-05-10T15:31:57;7.80;;;2.87;;
2187;SDS011;1100;52.014;8.540;2023-05-10T15:34:22;5.77;;;2.57;;
2187;SDS011;1100;52.014;8.540;2023-05-10T15:36:48;8.97;;;3.70;;
2187;SDS011;1100;52.014;8.540;2023-05-10T15:39:13;11.93;;;3.47;;
2187;SDS011;1100;52.014;8.540;2023-05-10T15:41:38;10.55;;;3.65;;